VILANOVA DE SAU (Osona)





Hora UTC 06:20
Temperatura 15.8 ºC
Humitat 85.4 %
Pressió 1012.0 hPa
Pluja 0.0 mm
Velocitat vent 1.1 km/h
Direcció vent NE
Radiació solar 116.4 W/m²

Dades diàries 2024-05-30



Hora UTC (hivern +1h; estiu +2h)
Temperatura (ºC) Humitat (%) Pressió (hPa) Velocitat vent (km/h) Precipitació (mm) Radiació solar (W/m²)
Hora UTC Aire Humitat Pressió Vel. Dir. Vel. Max Dir. Intent. màx 5 min. Rad. Sol.
00:05 16.3 86.4 1014.1 0.0 NNE 0.0 SW 0.0 0.1
00:10 16.2 86.7 1014.1 0.0 NNE 0.0 SW 0.0 0.1
00:15 16.0 87.2 1014.1 0.0 NNE 0.0 SW 0.0 0.1
00:20 15.9 87.3 1014.1 0.0 NNE 0.0 SW 0.0 0.1
00:25 15.9 87.3 1014.1 0.0 NNE 0.0 SW 0.0 0.2
00:30 15.8 87.2 1014.1 0.0 NNE 0.0 SW 0.0 0.1
00:35 15.7 87.6 1014.0 0.0 NNE 0.0 SW 0.0 0.1
00:40 15.6 87.9 1014.0 0.0 NNE 0.0 SW 0.0 0.1
00:45 15.5 88.0 1013.9 0.0 NNE 0.0 SW 0.0 0.1
00:50 15.3 88.3 1013.9 0.0 NNE 0.0 SW 0.0 0.1
00:55 15.2 88.8 1013.8 0.0 NNE 0.0 SW 0.0 0.1
01:00 15.1 89.1 1013.8 0.0 NNE 0.0 SW 0.0 0.1
01:05 15.0 89.4 1013.8 0.0 NNE 0.0 SW 0.0 0.1
01:10 15.0 89.7 1013.7 0.0 NNE 0.0 SW 0.0 0.1
01:15 14.8 89.9 1013.7 0.0 NNE 0.0 SW 0.0 0.2
01:20 14.7 90.4 1013.6 0.0 NNE 0.0 SW 0.0 0.2
01:25 14.7 90.8 1013.5 0.0 NNE 0.0 SW 0.0 0.1
01:30 14.6 90.9 1013.5 0.0 NNE 0.0 SW 0.0 0.1
01:35 14.5 91.3 1013.5 0.0 NNE 0.0 S 0.0 0.2
01:40 14.4 91.4 1013.4 0.0 NNE 0.0 SW 0.0 0.2
01:45 14.3 91.5 1013.3 0.0 NNE 0.0 SSW 0.0 0.1
01:50 14.2 91.7 1013.3 0.0 NNE 0.0 SSW 0.0 0.1
01:55 14.2 91.9 1013.2 0.0 NNE 0.0 SW 0.0 0.2
02:00 14.1 92.0 1013.1 0.0 NNE 0.0 WSW 0.0 0.2
02:05 14.0 92.0 1013.1 0.0 NNE 0.0 WSW 0.0 0.1
02:10 13.9 92.1 1013.1 0.0 NNE 0.0 SW 0.0 0.1
02:15 13.8 92.2 1013.1 0.0 NNE 0.0 SW 0.0 0.2
02:20 13.8 92.6 1013.1 0.0 NNE 0.0 SW 0.0 0.1
02:25 13.7 92.7 1013.1 0.0 NNE 0.0 SW 0.0 0.1
02:30 13.6 93.0 1013.0 0.0 NNE 0.0 SW 0.0 0.1
02:35 13.6 93.2 1013.0 0.0 NNE 0.0 SW 0.0 0.2
02:40 13.6 93.3 1012.9 0.0 NNE 0.0 SW 0.0 0.1
02:45 13.5 93.4 1012.8 0.0 NNE 0.0 SW 0.0 0.1
02:50 13.4 93.7 1012.8 0.0 NNE 0.0 SW 0.0 0.1
02:55 13.4 93.8 1012.8 0.0 NNE 0.0 SW 0.0 0.2
03:00 13.4 94.0 1012.7 0.0 NNE 0.0 SW 0.0 0.1
03:05 13.3 94.1 1012.6 0.0 NNE 0.0 SW 0.0 0.1
03:10 13.3 94.3 1012.6 0.0 NNE 0.0 SW 0.0 0.1
03:15 13.2 94.4 1012.6 0.0 NNE 0.0 SW 0.0 0.1
03:20 13.2 94.4 1012.5 0.0 NNE 0.0 SW 0.0 0.1
03:25 13.1 94.5 1012.4 0.0 NNE 0.0 SW 0.0 0.2
03:30 13.1 94.6 1012.4 0.0 NNE 0.0 SW 0.0 0.1
03:35 13.1 94.7 1012.3 0.0 NNE 0.0 SW 0.0 0.1
03:40 13.0 94.8 1012.3 0.0 NNE 0.0 SW 0.0 0.2
03:45 12.9 95.0 1012.3 0.0 NNE 0.0 SW 0.0 0.2
03:50 12.9 95.0 1012.2 0.0 NNE 0.0 SW 0.0 0.1
03:55 12.9 95.2 1012.1 0.0 NNE 0.0 SW 0.0 0.2
04:00 12.9 95.2 1012.1 0.0 NNE 0.0 SW 0.0 0.4
04:05 12.8 95.2 1012.1 0.0 NNE 0.0 SW 0.0 0.8
04:10 12.8 95.4 1012.1 0.0 NNE 0.0 SW 0.0 1.9
04:15 12.8 95.5 1012.2 0.0 NNE 0.0 SW 0.0 4.1
04:20 12.7 95.5 1012.2 0.0 NNE 0.0 SW 0.0 5.4
04:25 12.8 95.8 1012.2 0.0 NNE 0.0 SW 0.0 8.5
04:30 12.8 95.7 1012.2 0.0 NNE 0.0 SW 0.0 12.6
04:35 12.9 95.7 1012.2 0.0 NNE 0.0 SW 0.0 22.6
04:40 13.0 95.7 1012.2 0.0 NNE 0.0 SW 0.0 38.8
04:45 13.3 95.2 1012.2 0.0 NNE 0.0 SW 0.0 41.9
04:50 13.5 94.6 1012.2 0.0 NNE 0.0 SW 0.0 43.0
04:55 13.8 94.1 1012.2 0.0 NNE 0.0 SW 0.0 36.2
05:00 13.9 93.6 1012.2 0.0 NNE 0.0 SW 0.0 62.3
05:05 14.2 93.0 1012.1 0.0 NNE 0.0 SW 0.0 64.1
05:10 14.5 92.3 1012.1 0.0 NNE 0.0 SW 0.0 83.5
05:15 14.8 91.3 1012.1 0.0 NNE 0.0 SW 0.0 94.4
05:20 14.9 89.9 1012.1 0.0 NNE 0.0 SW 0.0 65.6
05:25 14.8 90.1 1012.1 0.0 NNE 0.0 SW 0.0 66.5
05:30 14.8 90.4 1012.0 0.0 NNE 0.0 SW 0.0 65.8
05:35 14.9 90.4 1012.0 0.0 NNE 0.0 SW 0.0 66.2
05:40 14.7 90.6 1012.0 0.0 NNE 0.0 SW 0.0 78.0
05:45 14.8 91.0 1012.0 0.0 NNE 0.0 E 0.0 99.2
05:50 15.0 89.4 1012.1 0.0 NNE 0.0 E 0.0 98.5
05:55 15.2 88.1 1012.1 0.0 NNE 0.0 SSE 0.0 145.1
06:00 15.6 85.9 1012.1 0.0 NNE 0.0 ENE 0.0 146.8
06:05 15.7 85.1 1012.1 0.0 NNE 0.0 ENE 0.0 121.9
06:10 15.7 84.9 1012.1 3.5 NNE 6.1 NNE 0.0 138.2
06:15 15.7 85.0 1012.0 2.0 NE 6.1 NNE 0.0 124.5
06:20 15.8 85.4 1012.0 1.1 NE 6.1 NE 0.0 116.4
Màxima 16.3 95.8 1014.1 3.5 NNE 6.1 NE 0.0 146.8
Mínima 12.7 84.9 1012.0
Total 0.0